createdAt,value
2018-10-17T00:00:58.629Z,1016.60
2018-10-17T00:02:04.142Z,1016.59
2018-10-17T00:03:09.679Z,1016.58
2018-10-17T00:04:15.224Z,1016.64
2018-10-17T00:05:20.759Z,1016.60
2018-10-17T00:06:26.297Z,1016.62
2018-10-17T00:07:31.836Z,1016.61
2018-10-17T00:08:37.375Z,1016.62
2018-10-17T00:09:42.915Z,1016.61
2018-10-17T00:10:48.456Z,1016.59
2018-10-17T00:11:53.995Z,1016.61
2018-10-17T00:12:59.562Z,1016.60
2018-10-17T00:14:05.074Z,1016.63
2018-10-17T00:15:10.618Z,1016.61
2018-10-17T00:16:16.154Z,1016.60
2018-10-17T00:17:21.693Z,1016.64
2018-10-17T00:18:27.237Z,1016.64
2018-10-17T00:19:32.769Z,1016.62
2018-10-17T00:20:38.312Z,1016.61
2018-10-17T00:21:43.850Z,1016.62
2018-10-17T00:22:49.392Z,1016.64
2018-10-17T00:23:54.930Z,1016.65
2018-10-17T00:25:00.496Z,1016.62
2018-10-17T00:26:06.013Z,1016.59
2018-10-17T00:27:11.550Z,1016.58
2018-10-17T00:28:17.084Z,1016.62
2018-10-17T00:29:22.628Z,1016.61
2018-10-17T00:30:28.167Z,1016.61
2018-10-17T00:31:33.705Z,1016.62
2018-10-17T00:32:39.248Z,1016.63
2018-10-17T00:33:44.783Z,1016.62
2018-10-17T00:34:50.322Z,1016.61
2018-10-17T00:35:55.863Z,1016.62
2018-10-17T00:37:01.459Z,1016.62
2018-10-17T00:38:06.943Z,1016.61
2018-10-17T00:39:12.478Z,1016.60
2018-10-17T00:40:18.050Z,1016.61
2018-10-17T00:41:23.560Z,1016.58
2018-10-17T00:42:29.099Z,1016.54
2018-10-17T00:43:34.642Z,1016.57
2018-10-17T00:44:40.181Z,1016.60
2018-10-17T00:45:45.717Z,1016.57
2018-10-17T00:46:51.264Z,1016.57
2018-10-17T00:47:56.795Z,1016.55
2018-10-17T00:49:02.394Z,1016.52
2018-10-17T00:50:07.875Z,1016.54
2018-10-17T00:51:13.415Z,1016.50
2018-10-17T00:52:18.953Z,1016.48
2018-10-17T00:53:24.491Z,1016.43
2018-10-17T00:54:30.033Z,1016.42
2018-10-17T00:55:35.569Z,1016.44
2018-10-17T00:56:41.109Z,1016.40
2018-10-17T00:57:46.650Z,1016.45
2018-10-17T00:58:52.241Z,1016.40
2018-10-17T00:59:57.735Z,1016.40
2018-10-17T01:01:03.293Z,1016.43
2018-10-17T01:02:08.821Z,1016.44
2018-10-17T01:03:14.348Z,1016.38
2018-10-17T01:04:19.894Z,1016.42
2018-10-17T01:05:25.433Z,1016.40
2018-10-17T01:06:30.962Z,1016.45
2018-10-17T01:07:36.504Z,1016.45
2018-10-17T01:08:42.040Z,1016.47
2018-10-17T01:09:47.582Z,1016.44
2018-10-17T01:10:53.145Z,1016.43
2018-10-17T01:11:58.658Z,1016.47
2018-10-17T01:13:04.222Z,1016.43
2018-10-17T01:14:09.736Z,1016.42
2018-10-17T01:15:15.281Z,1016.39
2018-10-17T01:16:20.815Z,1016.39
2018-10-17T01:17:26.354Z,1016.40
2018-10-17T01:18:31.898Z,1016.38
2018-10-17T01:19:37.432Z,1016.39
2018-10-17T01:20:42.973Z,1016.43
2018-10-17T01:21:48.513Z,1016.44
2018-10-17T01:22:54.087Z,1016.42
2018-10-17T01:23:59.589Z,1016.48
2018-10-17T01:25:05.185Z,1016.48
2018-10-17T01:26:10.673Z,1016.43
2018-10-17T01:27:16.207Z,1016.44
2018-10-17T01:28:21.747Z,1016.43
2018-10-17T01:29:27.289Z,1016.46
2018-10-17T01:30:32.822Z,1016.45
2018-10-17T01:31:38.364Z,1016.38
2018-10-17T01:32:43.903Z,1016.39
2018-10-17T01:33:49.446Z,1016.46
2018-10-17T01:34:55.013Z,1016.46
2018-10-17T01:36:00.517Z,1016.48
2018-10-17T01:37:06.126Z,1016.46
2018-10-17T01:38:11.604Z,1016.45
2018-10-17T01:39:17.133Z,1016.44
2018-10-17T01:40:22.674Z,1016.46
2018-10-17T01:41:28.212Z,1016.41
2018-10-17T01:42:33.751Z,1016.44
2018-10-17T01:43:39.290Z,1016.42
2018-10-17T01:44:44.828Z,1016.42
2018-10-17T01:45:50.367Z,1016.42
2018-10-17T01:46:55.924Z,1016.39
2018-10-17T01:48:01.446Z,1016.39
2018-10-17T01:49:07.047Z,1016.40
2018-10-17T01:50:12.526Z,1016.36
2018-10-17T01:51:18.060Z,1016.39
2018-10-17T01:52:23.605Z,1016.37
2018-10-17T01:53:29.139Z,1016.38
2018-10-17T01:54:34.679Z,1016.37
2018-10-17T01:55:40.217Z,1016.37
2018-10-17T01:56:45.757Z,1016.38
2018-10-17T01:57:51.300Z,1016.41
2018-10-17T01:58:56.848Z,1016.40
2018-10-17T02:00:02.373Z,1016.39
2018-10-17T02:01:07.940Z,1016.42
2018-10-17T02:02:13.456Z,1016.43
2018-10-17T02:03:18.989Z,1016.41
2018-10-17T02:04:24.526Z,1016.38
2018-10-17T02:05:30.069Z,1016.38
2018-10-17T02:06:35.607Z,1016.36
2018-10-17T02:07:41.143Z,1016.38
2018-10-17T02:08:46.683Z,1016.38
2018-10-17T02:09:52.220Z,1016.35
2018-10-17T02:10:57.775Z,1016.35
2018-10-17T02:12:03.299Z,1016.37
2018-10-17T02:13:08.881Z,1016.36
2018-10-17T02:14:14.378Z,1016.32
2018-10-17T02:15:19.913Z,1016.31
2018-10-17T02:16:25.453Z,1016.30
2018-10-17T02:17:30.997Z,1016.33
2018-10-17T02:18:36.537Z,1016.33
2018-10-17T02:19:42.074Z,1016.38
2018-10-17T02:20:47.613Z,1016.33
2018-10-17T02:21:53.149Z,1016.36
2018-10-17T02:22:58.741Z,1016.33
2018-10-17T02:24:04.227Z,1016.32
2018-10-17T02:25:09.801Z,1016.37
2018-10-17T02:26:15.303Z,1016.32
2018-10-17T02:27:20.839Z,1016.28
2018-10-17T02:28:26.380Z,1016.27
2018-10-17T02:29:31.919Z,1016.25
2018-10-17T02:30:37.459Z,1016.31
2018-10-17T02:31:42.999Z,1016.31
2018-10-17T02:32:48.540Z,1016.32
2018-10-17T02:33:54.075Z,1016.37
2018-10-17T02:34:59.678Z,1016.33
2018-10-17T02:36:05.152Z,1016.37
2018-10-17T02:37:10.745Z,1016.36
2018-10-17T02:38:16.227Z,1016.38
2018-10-17T02:39:21.768Z,1016.38
2018-10-17T02:40:27.303Z,1016.42
2018-10-17T02:41:32.843Z,1016.38
2018-10-17T02:42:38.383Z,1016.41
2018-10-17T02:43:43.920Z,1016.41
2018-10-17T02:44:49.458Z,1016.39
2018-10-17T02:45:55.000Z,1016.39
2018-10-17T02:47:00.555Z,1016.37
2018-10-17T02:48:06.075Z,1016.35
2018-10-17T02:49:11.664Z,1016.36
2018-10-17T02:50:17.152Z,1016.34
2018-10-17T02:51:22.690Z,1016.33
2018-10-17T02:52:28.229Z,1016.32
2018-10-17T02:53:33.770Z,1016.33
2018-10-17T02:54:39.309Z,1016.33
2018-10-17T02:55:44.845Z,1016.34
2018-10-17T02:56:50.387Z,1016.33
2018-10-17T02:57:55.923Z,1016.35
2018-10-17T02:59:01.483Z,1016.35
2018-10-17T03:00:07.001Z,1016.36
2018-10-17T03:01:12.635Z,1016.38
2018-10-17T03:02:18.077Z,1016.40
2018-10-17T03:03:23.620Z,1016.39
2018-10-17T03:04:29.154Z,1016.38
2018-10-17T03:05:34.700Z,1016.42
2018-10-17T03:06:40.234Z,1016.36
2018-10-17T03:07:45.779Z,1016.36
2018-10-17T03:08:51.312Z,1016.35
2018-10-17T03:09:56.847Z,1016.32
2018-10-17T03:11:02.449Z,1016.33
2018-10-17T03:12:07.927Z,1016.30
2018-10-17T03:13:13.530Z,1016.32
2018-10-17T03:14:19.003Z,1016.29
2018-10-17T03:15:24.540Z,1016.35
2018-10-17T03:16:30.079Z,1016.32
2018-10-17T03:17:35.615Z,1016.30
2018-10-17T03:18:41.164Z,1016.32
2018-10-17T03:19:46.692Z,1016.31
2018-10-17T03:20:52.232Z,1016.30
2018-10-17T03:21:57.768Z,1016.36
2018-10-17T03:23:03.365Z,1016.36
2018-10-17T03:24:08.851Z,1016.36
2018-10-17T03:25:14.419Z,1016.38
2018-10-17T03:26:19.926Z,1016.37
2018-10-17T03:27:25.469Z,1016.38
2018-10-17T03:28:31.004Z,1016.38
2018-10-17T03:29:36.542Z,1016.40
2018-10-17T03:30:42.073Z,1016.42
2018-10-17T03:31:47.612Z,1016.41
2018-10-17T03:32:53.154Z,1016.41
2018-10-17T03:33:58.690Z,1016.35
2018-10-17T03:35:04.302Z,1016.39
2018-10-17T03:36:09.768Z,1016.36
2018-10-17T03:37:15.391Z,1016.34
2018-10-17T03:38:20.844Z,1016.35
2018-10-17T03:39:26.388Z,1016.33
2018-10-17T03:40:31.920Z,1016.36
2018-10-17T03:41:37.455Z,1016.38
2018-10-17T03:42:42.999Z,1016.37
2018-10-17T03:43:48.542Z,1016.39
2018-10-17T03:44:54.078Z,1016.35
2018-10-17T03:45:59.612Z,1016.40
2018-10-17T03:47:05.181Z,1016.38
2018-10-17T03:48:10.688Z,1016.34
2018-10-17T03:49:16.321Z,1016.35
2018-10-17T03:50:21.765Z,1016.34
2018-10-17T03:51:27.304Z,1016.35
2018-10-17T03:52:32.838Z,1016.33
2018-10-17T03:53:38.380Z,1016.33
2018-10-17T03:54:43.917Z,1016.34
2018-10-17T03:55:49.460Z,1016.38
2018-10-17T03:56:54.998Z,1016.38
2018-10-17T03:58:00.530Z,1016.38
2018-10-17T03:59:06.153Z,1016.38
2018-10-17T04:00:11.609Z,1016.37
2018-10-17T04:01:17.314Z,1016.38
2018-10-17T04:02:22.685Z,1016.35
2018-10-17T04:03:28.225Z,1016.30
2018-10-17T04:04:33.758Z,1016.33
2018-10-17T04:05:39.301Z,1016.33
2018-10-17T04:06:44.838Z,1016.31
2018-10-17T04:07:50.375Z,1016.33
2018-10-17T04:08:55.912Z,1016.30
2018-10-17T04:10:01.458Z,1016.30
2018-10-17T04:11:06.998Z,1016.29
2018-10-17T04:12:12.531Z,1016.29
2018-10-17T04:13:18.169Z,1016.28
2018-10-17T04:14:23.607Z,1016.30
2018-10-17T04:15:29.143Z,1016.30
2018-10-17T04:16:34.680Z,1016.31
2018-10-17T04:17:40.223Z,1016.30
2018-10-17T04:18:45.756Z,1016.32
2018-10-17T04:19:51.304Z,1016.29
2018-10-17T04:20:56.834Z,1016.31
2018-10-17T04:22:02.377Z,1016.26
2018-10-17T04:23:07.986Z,1016.28
2018-10-17T04:24:13.447Z,1016.27
2018-10-17T04:25:18.992Z,1016.30
2018-10-17T04:26:24.521Z,1016.29
2018-10-17T04:27:30.059Z,1016.26
2018-10-17T04:28:35.592Z,1016.29
2018-10-17T04:29:41.138Z,1016.30
2018-10-17T04:30:46.675Z,1016.29
2018-10-17T04:31:52.211Z,1016.29
2018-10-17T04:32:57.754Z,1016.30
2018-10-17T04:34:03.288Z,1016.31
2018-10-17T04:35:08.899Z,1016.33
2018-10-17T04:36:14.370Z,1016.34
2018-10-17T04:37:19.906Z,1016.29
2018-10-17T04:38:25.446Z,1016.31
2018-10-17T04:39:30.982Z,1016.25
2018-10-17T04:40:36.517Z,1016.27
2018-10-17T04:41:42.053Z,1016.25
2018-10-17T04:42:47.591Z,1016.28
2018-10-17T04:43:53.135Z,1016.28
2018-10-17T04:44:58.673Z,1016.28
2018-10-17T04:46:04.205Z,1016.30
2018-10-17T04:47:09.780Z,1016.32
2018-10-17T04:48:15.284Z,1016.27
2018-10-17T04:49:20.825Z,1016.30
2018-10-17T04:50:26.360Z,1016.32
2018-10-17T04:51:31.897Z,1016.30
2018-10-17T04:52:37.433Z,1016.29
2018-10-17T04:53:42.975Z,1016.33
2018-10-17T04:54:48.514Z,1016.28
2018-10-17T04:55:54.054Z,1016.29
2018-10-17T04:56:59.596Z,1016.30
2018-10-17T04:58:05.127Z,1016.30
2018-10-17T04:59:10.715Z,1016.27
2018-10-17T05:00:16.198Z,1016.32
2018-10-17T05:01:21.740Z,1016.33
2018-10-17T05:02:27.281Z,1016.33
2018-10-17T05:03:32.811Z,1016.36
2018-10-17T05:04:38.450Z,1016.36
2018-10-17T05:05:43.886Z,1016.34
2018-10-17T05:06:49.442Z,1016.34
2018-10-17T05:07:54.964Z,1016.34
2018-10-17T05:09:00.501Z,1016.34
2018-10-17T05:10:06.041Z,1016.35
2018-10-17T05:11:11.629Z,1016.39
2018-10-17T05:12:17.117Z,1016.41
2018-10-17T05:13:22.656Z,1016.41
2018-10-17T05:14:28.198Z,1016.41
2018-10-17T05:15:33.741Z,1016.42
2018-10-17T05:16:39.268Z,1016.43
2018-10-17T05:17:44.803Z,1016.48
2018-10-17T05:18:50.342Z,1016.44
2018-10-17T05:19:55.886Z,1016.43
2018-10-17T05:21:01.426Z,1016.48
2018-10-17T05:22:06.958Z,1016.45
2018-10-17T05:23:12.609Z,1016.44
2018-10-17T05:24:18.041Z,1016.47
2018-10-17T05:25:23.572Z,1016.44
2018-10-17T05:26:29.108Z,1016.50
2018-10-17T05:27:34.648Z,1016.48
2018-10-17T05:28:40.187Z,1016.45
2018-10-17T05:29:45.774Z,1016.51
2018-10-17T05:30:51.264Z,1016.45
2018-10-17T05:31:56.803Z,1016.51
2018-10-17T05:33:02.335Z,1016.53
2018-10-17T05:34:07.881Z,1016.51
2018-10-17T05:35:13.477Z,1016.52
2018-10-17T05:36:18.951Z,1016.54
2018-10-17T05:37:24.558Z,1016.52
2018-10-17T05:38:30.029Z,1016.55
2018-10-17T05:39:35.573Z,1016.57
2018-10-17T05:40:41.109Z,1016.59
2018-10-17T05:41:46.647Z,1016.59
2018-10-17T05:42:52.219Z,1016.59
2018-10-17T05:43:57.726Z,1016.62
2018-10-17T05:45:03.262Z,1016.60
2018-10-17T05:46:08.793Z,1016.57
2018-10-17T05:47:14.392Z,1016.63
2018-10-17T05:48:19.868Z,1016.61
2018-10-17T05:49:25.414Z,1016.63
2018-10-17T05:50:30.947Z,1016.67
2018-10-17T05:51:36.490Z,1016.66
2018-10-17T05:52:42.025Z,1016.64
2018-10-17T05:53:47.560Z,1016.66
2018-10-17T05:54:53.146Z,1016.65
2018-10-17T05:55:58.637Z,1016.62
2018-10-17T05:57:04.180Z,1016.65
2018-10-17T05:58:09.713Z,1016.62
2018-10-17T05:59:15.316Z,1016.65
2018-10-17T06:00:20.796Z,1016.66
2018-10-17T06:01:26.374Z,1016.67
2018-10-17T06:02:31.948Z,1016.67
2018-10-17T06:03:37.410Z,1016.68
2018-10-17T06:04:42.945Z,1016.70
2018-10-17T06:05:48.483Z,1016.70
2018-10-17T06:06:54.055Z,1016.66
2018-10-17T06:07:59.559Z,1016.71
2018-10-17T06:09:05.094Z,1016.69
2018-10-17T06:10:10.652Z,1016.69
2018-10-17T06:11:16.245Z,1016.67
2018-10-17T06:12:21.708Z,1016.65
2018-10-17T06:13:27.246Z,1016.67
2018-10-17T06:14:32.787Z,1016.66
2018-10-17T06:15:38.328Z,1016.65
2018-10-17T06:16:43.907Z,1016.63
2018-10-17T06:17:49.400Z,1016.62
2018-10-17T06:18:54.964Z,1016.66
2018-10-17T06:20:00.478Z,1016.68
2018-10-17T06:21:06.019Z,1016.66
2018-10-17T06:22:11.557Z,1016.67
2018-10-17T06:23:17.091Z,1016.69
2018-10-17T06:24:22.626Z,1016.69
2018-10-17T06:25:28.169Z,1016.73
2018-10-17T06:26:33.708Z,1016.73
2018-10-17T06:27:39.243Z,1016.74
2018-10-17T06:28:44.785Z,1016.75
2018-10-17T06:29:50.325Z,1016.71
2018-10-17T06:30:55.906Z,1016.71
2018-10-17T06:32:01.398Z,1016.72
2018-10-17T06:33:06.933Z,1016.75
2018-10-17T06:34:12.560Z,1016.74
2018-10-17T06:35:18.096Z,1016.75
2018-10-17T06:36:23.547Z,1016.76
2018-10-17T06:37:29.083Z,1016.78
2018-10-17T06:38:34.630Z,1016.77
2018-10-17T06:39:40.168Z,1016.78
2018-10-17T06:40:45.699Z,1016.77
2018-10-17T06:41:51.234Z,1016.77
2018-10-17T06:42:56.808Z,1016.79
2018-10-17T06:44:02.363Z,1016.79
2018-10-17T06:45:07.852Z,1016.80
2018-10-17T06:46:13.395Z,1016.78
2018-10-17T06:47:19.036Z,1016.80
2018-10-17T06:48:24.471Z,1016.80
2018-10-17T06:49:30.004Z,1016.85
2018-10-17T06:50:35.546Z,1016.81
2018-10-17T06:51:41.085Z,1016.85
2018-10-17T06:52:46.624Z,1016.87
2018-10-17T06:53:52.162Z,1016.81
2018-10-17T06:54:57.767Z,1016.87
2018-10-17T06:56:03.234Z,1016.84
2018-10-17T06:57:08.770Z,1016.85
2018-10-17T06:58:14.310Z,1016.90
2018-10-17T06:59:19.850Z,1016.93
2018-10-17T07:00:25.386Z,1016.89
2018-10-17T07:01:30.936Z,1016.92
2018-10-17T07:02:36.468Z,1016.94
2018-10-17T07:03:42.002Z,1016.96
2018-10-17T07:04:47.545Z,1016.92
2018-10-17T07:05:53.077Z,1016.94
2018-10-17T07:06:58.651Z,1016.93
2018-10-17T07:08:04.159Z,1016.95
2018-10-17T07:09:09.692Z,1016.92
2018-10-17T07:10:15.234Z,1016.92
2018-10-17T07:11:20.880Z,1016.90
2018-10-17T07:12:26.309Z,1016.96
2018-10-17T07:13:31.845Z,1016.89
2018-10-17T07:14:37.389Z,1016.90
2018-10-17T07:15:43.049Z,1016.91
2018-10-17T07:16:48.460Z,1016.95
2018-10-17T07:17:54.002Z,1016.94
2018-10-17T07:18:59.571Z,1016.92
2018-10-17T07:20:05.075Z,1016.93
2018-10-17T07:21:10.616Z,1016.96
2018-10-17T07:22:16.153Z,1016.99
2018-10-17T07:23:21.693Z,1016.99
2018-10-17T07:24:27.229Z,1017.00
2018-10-17T07:25:32.766Z,1017.00
2018-10-17T07:26:38.306Z,1017.03
2018-10-17T07:27:43.839Z,1017.02
2018-10-17T07:28:49.459Z,1016.99
2018-10-17T07:29:55.026Z,1017.01
2018-10-17T07:31:00.498Z,1016.99
2018-10-17T07:32:06.005Z,1017.01
2018-10-17T07:33:11.536Z,1017.01
2018-10-17T07:34:17.085Z,1017.03
2018-10-17T07:35:22.614Z,1017.03
2018-10-17T07:36:28.154Z,1017.04
2018-10-17T07:37:33.690Z,1017.00
2018-10-17T07:38:39.235Z,1017.03
2018-10-17T07:39:44.776Z,1017.01
2018-10-17T07:40:50.315Z,1017.07
2018-10-17T07:41:55.875Z,1017.03
2018-10-17T07:43:01.388Z,1017.06
2018-10-17T07:44:06.927Z,1017.06
2018-10-17T07:45:12.466Z,1017.06
2018-10-17T07:46:18.007Z,1017.07
2018-10-17T07:47:23.545Z,1017.06
2018-10-17T07:48:29.092Z,1017.07
2018-10-17T07:49:34.620Z,1017.08
2018-10-17T07:50:40.154Z,1017.10
2018-10-17T07:51:45.697Z,1017.05
2018-10-17T07:52:51.303Z,1017.07
2018-10-17T07:53:56.779Z,1017.07
2018-10-17T07:55:02.314Z,1017.11
2018-10-17T07:56:07.857Z,1017.04
2018-10-17T07:57:13.393Z,1016.97
2018-10-17T07:58:18.936Z,1017.02
2018-10-17T07:59:24.475Z,1017.03
2018-10-17T08:00:30.130Z,1017.03
2018-10-17T08:01:35.547Z,1017.03
2018-10-17T08:02:41.086Z,1017.06
2018-10-17T08:03:46.631Z,1017.08
2018-10-17T08:04:52.179Z,1017.07
2018-10-17T08:05:57.778Z,1017.09
2018-10-17T08:07:03.248Z,1017.08
2018-10-17T08:08:08.789Z,1017.08
2018-10-17T08:09:14.322Z,1017.07
2018-10-17T08:10:19.863Z,1017.09
2018-10-17T08:11:25.402Z,1017.08
2018-10-17T08:12:30.945Z,1017.07
2018-10-17T08:13:36.478Z,1017.06
2018-10-17T08:14:42.019Z,1017.05
2018-10-17T08:15:47.560Z,1017.05
2018-10-17T08:16:53.100Z,1017.02
2018-10-17T08:17:58.703Z,1017.06
2018-10-17T08:19:04.177Z,1017.05
2018-10-17T08:20:09.719Z,1017.08
2018-10-17T08:21:15.314Z,1017.05
2018-10-17T08:22:20.797Z,1017.04
2018-10-17T08:23:26.337Z,1017.04
2018-10-17T08:24:31.877Z,1017.02
2018-10-17T08:25:37.415Z,1017.05
2018-10-17T08:26:42.959Z,1017.05
2018-10-17T08:27:48.493Z,1017.07
2018-10-17T08:28:54.034Z,1017.00
2018-10-17T08:29:59.618Z,1017.01
2018-10-17T08:31:05.117Z,1017.03
2018-10-17T08:32:10.651Z,1017.04
2018-10-17T08:33:16.195Z,1017.06
2018-10-17T08:34:21.736Z,1017.05
2018-10-17T08:35:27.358Z,1017.05
2018-10-17T08:36:32.985Z,1017.00
2018-10-17T08:37:38.658Z,1017.03
2018-10-17T08:38:43.891Z,1016.98
2018-10-17T08:39:49.435Z,1017.02
2018-10-17T08:40:54.984Z,1017.00
2018-10-17T08:42:00.516Z,1017.00
2018-10-17T08:43:06.059Z,1017.03
2018-10-17T08:44:11.612Z,1016.98
2018-10-17T08:45:17.184Z,1017.02
2018-10-17T08:46:22.672Z,1017.03
2018-10-17T08:47:28.218Z,1017.01
2018-10-17T08:48:33.753Z,1017.01
2018-10-17T08:49:39.293Z,1017.06
2018-10-17T08:50:44.926Z,1017.00
2018-10-17T08:51:50.375Z,1017.01
2018-10-17T08:52:55.917Z,1017.01
2018-10-17T08:54:01.459Z,1016.97
2018-10-17T08:55:06.996Z,1016.99
2018-10-17T08:56:12.591Z,1017.01
2018-10-17T08:57:18.072Z,1016.98
2018-10-17T08:58:23.619Z,1016.95
2018-10-17T08:59:29.162Z,1016.96
2018-10-17T09:00:34.697Z,1016.96
2018-10-17T09:01:40.238Z,1016.95
2018-10-17T09:02:45.777Z,1016.95
2018-10-17T09:03:51.320Z,1016.96
2018-10-17T09:04:56.861Z,1016.92
2018-10-17T09:06:02.444Z,1016.96
2018-10-17T09:07:07.942Z,1016.96
2018-10-17T09:08:13.490Z,1016.95
2018-10-17T09:09:19.024Z,1016.93
2018-10-17T09:10:24.566Z,1016.93
2018-10-17T09:11:30.822Z,1016.92
2018-10-17T09:12:35.643Z,1016.90
2018-10-17T09:13:41.184Z,1016.90
2018-10-17T09:14:46.742Z,1016.91
2018-10-17T09:15:52.280Z,1016.87
2018-10-17T09:16:57.814Z,1016.89
2018-10-17T09:18:03.433Z,1016.89
2018-10-17T09:19:08.893Z,1016.95
2018-10-17T09:20:14.902Z,1016.89
2018-10-17T09:21:20.268Z,1016.93
2018-10-17T09:22:25.741Z,1016.90
2018-10-17T09:23:31.055Z,1016.94
2018-10-17T09:24:36.595Z,1016.94
2018-10-17T09:25:42.228Z,1016.96
2018-10-17T09:26:47.680Z,1016.93
2018-10-17T09:27:53.237Z,1016.93
2018-10-17T09:28:58.759Z,1016.95
2018-10-17T09:30:04.363Z,1016.96
2018-10-17T09:31:09.846Z,1016.94
2018-10-17T09:32:15.386Z,1016.92
2018-10-17T09:33:20.926Z,1016.92
2018-10-17T09:34:26.472Z,1016.91
2018-10-17T09:35:32.023Z,1016.95
2018-10-17T09:36:37.559Z,1016.92
2018-10-17T09:37:43.099Z,1016.90
2018-10-17T09:38:48.640Z,1016.95
2018-10-17T09:39:54.903Z,1016.93
2018-10-17T09:40:59.721Z,1016.94
2018-10-17T09:42:05.311Z,1016.88
2018-10-17T09:43:10.827Z,1016.89
2018-10-17T09:44:16.349Z,1016.91
2018-10-17T09:45:21.890Z,1016.88
2018-10-17T09:46:27.428Z,1016.89
2018-10-17T09:47:32.970Z,1016.91
2018-10-17T09:48:38.509Z,1016.93
2018-10-17T09:49:44.055Z,1016.93
2018-10-17T09:50:49.593Z,1016.90
2018-10-17T09:51:55.176Z,1016.92
2018-10-17T09:53:00.684Z,1016.91
2018-10-17T09:54:06.244Z,1016.94
2018-10-17T09:55:11.762Z,1016.87
2018-10-17T09:56:17.305Z,1016.89
2018-10-17T09:57:22.849Z,1016.93
2018-10-17T09:58:28.393Z,1016.96
2018-10-17T09:59:33.938Z,1016.95
2018-10-17T10:00:39.476Z,1016.93
2018-10-17T10:01:45.017Z,1016.89
2018-10-17T10:02:50.558Z,1016.84
2018-10-17T10:03:56.166Z,1016.88
2018-10-17T10:05:01.641Z,1016.84
2018-10-17T10:06:07.210Z,1016.86
2018-10-17T10:07:12.726Z,1016.84
2018-10-17T10:08:18.273Z,1016.85
2018-10-17T10:09:23.813Z,1016.86
2018-10-17T10:10:29.358Z,1016.88
2018-10-17T10:11:34.895Z,1016.85
2018-10-17T10:12:40.441Z,1016.87
2018-10-17T10:13:45.984Z,1016.89
2018-10-17T10:14:51.527Z,1016.84
2018-10-17T10:15:57.070Z,1016.91
2018-10-17T10:17:02.689Z,1016.89
2018-10-17T10:18:08.153Z,1016.84
2018-10-17T10:19:13.693Z,1016.81
2018-10-17T10:20:19.237Z,1016.86
2018-10-17T10:21:24.785Z,1016.84
2018-10-17T10:22:30.327Z,1016.81
2018-10-17T10:23:35.873Z,1016.80
2018-10-17T10:24:41.441Z,1016.79
2018-10-17T10:25:46.951Z,1016.78
2018-10-17T10:26:52.492Z,1016.75
2018-10-17T10:27:58.042Z,1016.75
2018-10-17T10:29:03.581Z,1016.76
2018-10-17T10:30:09.166Z,1016.78
2018-10-17T10:31:14.670Z,1016.78
2018-10-17T10:32:20.209Z,1016.79
2018-10-17T10:33:25.759Z,1016.75
2018-10-17T10:34:31.297Z,1016.74
2018-10-17T10:35:36.838Z,1016.73
2018-10-17T10:36:42.379Z,1016.77
2018-10-17T10:37:47.925Z,1016.74
2018-10-17T10:38:53.468Z,1016.75
2018-10-17T10:39:59.022Z,1016.73
2018-10-17T10:41:04.555Z,1016.75
2018-10-17T10:42:10.164Z,1016.72
2018-10-17T10:43:15.644Z,1016.73
2018-10-17T10:44:21.498Z,1016.72
2018-10-17T10:45:26.794Z,1016.72
2018-10-17T10:46:32.270Z,1016.70
2018-10-17T10:47:37.813Z,1016.67
2018-10-17T10:48:43.356Z,1016.66
2018-10-17T10:49:48.898Z,1016.65
2018-10-17T10:50:54.441Z,1016.62
2018-10-17T10:51:59.986Z,1016.61
2018-10-17T10:53:05.567Z,1016.62
2018-10-17T10:54:11.109Z,1016.60
2018-10-17T10:55:16.619Z,1016.60
2018-10-17T10:56:22.159Z,1016.60
2018-10-17T10:57:27.702Z,1016.62
2018-10-17T10:58:33.350Z,1016.62
2018-10-17T10:59:38.962Z,1016.61
2018-10-17T11:00:44.331Z,1016.62
2018-10-17T11:01:49.871Z,1016.57
2018-10-17T11:02:55.457Z,1016.58
2018-10-17T11:04:00.963Z,1016.58
2018-10-17T11:05:06.589Z,1016.57
2018-10-17T11:06:12.054Z,1016.52
2018-10-17T11:07:17.590Z,1016.53
2018-10-17T11:08:23.140Z,1016.53
2018-10-17T11:09:28.675Z,1016.48
2018-10-17T11:10:34.219Z,1016.52
2018-10-17T11:11:39.765Z,1016.52
2018-10-17T11:12:45.313Z,1016.51
2018-10-17T11:13:50.919Z,1016.49
2018-10-17T11:14:56.627Z,1016.46
2018-10-17T11:16:01.945Z,1016.47
2018-10-17T11:17:07.553Z,1016.45
2018-10-17T11:18:13.025Z,1016.46
2018-10-17T11:19:18.574Z,1016.43
2018-10-17T11:20:24.119Z,1016.41
2018-10-17T11:21:29.657Z,1016.42
2018-10-17T11:22:35.202Z,1016.40
2018-10-17T11:23:40.745Z,1016.39
2018-10-17T11:24:46.286Z,1016.42
2018-10-17T11:25:51.828Z,1016.45
2018-10-17T11:26:57.428Z,1016.42
2018-10-17T11:28:02.928Z,1016.41
2018-10-17T11:29:08.549Z,1016.40
2018-10-17T11:30:14.012Z,1016.41
2018-10-17T11:31:19.554Z,1016.42
2018-10-17T11:32:25.097Z,1016.40
2018-10-17T11:33:30.643Z,1016.39
2018-10-17T11:34:36.188Z,1016.39
2018-10-17T11:35:41.728Z,1016.37
2018-10-17T11:36:47.271Z,1016.36
2018-10-17T11:37:52.825Z,1016.40
2018-10-17T11:38:58.374Z,1016.36
2018-10-17T11:40:03.931Z,1016.34
2018-10-17T11:41:09.521Z,1016.38
2018-10-17T11:42:14.993Z,1016.32
2018-10-17T11:43:20.535Z,1016.32
2018-10-17T11:44:26.086Z,1016.29
2018-10-17T11:45:31.628Z,1016.36
2018-10-17T11:46:37.169Z,1016.32
2018-10-17T11:47:42.787Z,1016.30
2018-10-17T11:48:48.255Z,1016.33
2018-10-17T11:49:53.804Z,1016.31
2018-10-17T11:50:59.401Z,1016.31
2018-10-17T11:52:04.890Z,1016.31
2018-10-17T11:53:10.546Z,1016.27
2018-10-17T11:54:15.977Z,1016.27
2018-10-17T11:55:21.521Z,1016.26
2018-10-17T11:56:27.063Z,1016.22
2018-10-17T11:57:32.613Z,1016.21
2018-10-17T11:58:38.156Z,1016.21
2018-10-17T11:59:43.707Z,1016.21
2018-10-17T12:00:49.267Z,1016.23
2018-10-17T12:01:54.790Z,1016.23
2018-10-17T12:03:00.358Z,1016.20
2018-10-17T12:04:06.051Z,1016.19
2018-10-17T12:05:11.716Z,1016.17
2018-10-17T12:06:17.056Z,1016.18
2018-10-17T12:07:22.507Z,1016.17
2018-10-17T12:08:28.052Z,1016.20
2018-10-17T12:09:33.598Z,1016.19
2018-10-17T12:10:39.140Z,1016.14
2018-10-17T12:11:44.718Z,1016.14
2018-10-17T12:12:50.234Z,1016.15
2018-10-17T12:13:55.773Z,1016.13
2018-10-17T12:15:01.330Z,1016.11
2018-10-17T12:16:06.862Z,1016.11
2018-10-17T12:17:12.407Z,1016.09
2018-10-17T12:18:18.120Z,1016.05
2018-10-17T12:19:23.493Z,1016.08
2018-10-17T12:20:29.045Z,1016.05
2018-10-17T12:21:34.752Z,1016.06
2018-10-17T12:22:40.127Z,1016.06
2018-10-17T12:23:45.668Z,1016.09
2018-10-17T12:24:51.222Z,1016.06
2018-10-17T12:25:56.759Z,1016.03
2018-10-17T12:27:02.325Z,1016.07
2018-10-17T12:28:08.002Z,1016.06
2018-10-17T12:29:13.393Z,1016.05
2018-10-17T12:30:19.114Z,1016.06
2018-10-17T12:31:24.484Z,1016.04
2018-10-17T12:32:30.026Z,1016.06
2018-10-17T12:33:35.574Z,1016.06
2018-10-17T12:34:41.119Z,1016.01
2018-10-17T12:35:46.661Z,1016.05
2018-10-17T12:36:52.202Z,1016.02
2018-10-17T12:37:57.745Z,1016.05
2018-10-17T12:39:03.384Z,1016.04
2018-10-17T12:40:08.895Z,1016.05
2018-10-17T12:41:14.457Z,1016.04
2018-10-17T12:42:19.929Z,1016.05
2018-10-17T12:43:25.474Z,1016.05
2018-10-17T12:44:31.011Z,1016.00
2018-10-17T12:45:36.631Z,1016.01
2018-10-17T12:46:42.104Z,1016.01
2018-10-17T12:47:47.649Z,1016.04
2018-10-17T12:48:53.236Z,1016.01
2018-10-17T12:49:58.817Z,1016.02
2018-10-17T12:51:04.284Z,1016.02
2018-10-17T12:52:09.924Z,1015.99
2018-10-17T12:53:15.384Z,1016.00
2018-10-17T12:54:20.915Z,1015.95
2018-10-17T12:55:26.455Z,1015.98
2018-10-17T12:56:32.006Z,1015.95
2018-10-17T12:57:37.544Z,1015.92
2018-10-17T12:58:43.092Z,1015.91
2018-10-17T12:59:48.637Z,1015.93
2018-10-17T13:00:54.215Z,1015.93
2018-10-17T13:01:59.719Z,1015.93
2018-10-17T13:03:05.267Z,1015.90
2018-10-17T13:04:10.815Z,1015.93
2018-10-17T13:05:16.456Z,1015.93
2018-10-17T13:06:21.899Z,1015.90
2018-10-17T13:07:27.450Z,1015.91
2018-10-17T13:08:32.988Z,1015.88
2018-10-17T13:09:38.593Z,1015.89
2018-10-17T13:10:44.076Z,1015.87
2018-10-17T13:11:49.632Z,1015.85
2018-10-17T13:12:55.210Z,1015.86